Time;durP1;ratioP1;P1;durP2;ratioP2;P2;SDS_P1;SDS_P2;PMS_P1;PMS_P2;Temp;Humidity;BMP_temperature;BMP_pressure;BME280_temperature;BME280_humidity;BME280_pressure;Samples;Min_cycle;Max_cycle;Signal;HPM_P1;HPM_P2
2022/02/10 00:20:57;;;;;;;6.97;5.25;;;;;;;5.47;52.38;94899.75;5022135;28;20187;-77
2022/02/10 00:36:37;;;;;;;17.52;8.23;;;;;;;5.75;50.41;94906.50;5012259;28;20503;-77
2022/02/10 00:39:38;;;;;;;16.80;8.55;;;;;;;5.62;50.10;94886.66;5020631;28;20518;-77
2022/02/10 00:41:50;;;;;;;22.50;12.98;;;;;;;5.57;49.85;94889.25;5022377;28;20059;-77
2022/02/10 00:44:15;;;;;;;16.00;8.60;;;;;;;5.63;50.32;94906.69;5010366;28;20597;-77
2022/02/10 00:46:41;;;;;;;11.63;7.65;;;;;;;5.56;49.76;94882.38;5018259;28;20135;-77
2022/02/10 00:49:08;;;;;;;11.98;7.78;;;;;;;5.63;49.46;94892.72;5020892;28;20037;-78
2022/02/10 00:51:33;;;;;;;14.30;8.00;;;;;;;5.50;49.60;94899.22;5020341;28;20032;-78
2022/02/10 00:53:59;;;;;;;12.52;7.03;;;;;;;5.34;49.86;94873.78;5016693;28;20041;-77
2022/02/10 00:56:24;;;;;;;8.43;6.40;;;;;;;5.41;49.88;94888.38;5023891;28;20343;-78
2022/02/10 00:58:58;;;;;;;9.88;5.82;;;;;;;5.47;49.38;94894.47;5026657;28;20032;-78
2022/02/10 01:07:04;;;;;;;9.40;6.53;;;;;;;5.06;49.75;94875.72;5022126;28;20094;-77
2022/02/10 01:12:44;;;;;;;9.93;6.75;;;;;;;4.67;50.10;94837.44;5025272;28;20509;-76
2022/02/10 01:31:34;;;;;;;7.60;5.50;;;;;;;4.60;50.17;94879.03;5017620;28;20055;-77
2022/02/10 01:34:00;;;;;;;10.57;5.13;;;;;;;4.37;50.06;94866.94;5022926;28;20587;-77
2022/02/10 01:36:25;;;;;;;12.07;6.00;;;;;;;4.70;49.94;94889.63;5013098;28;20044;-77
2022/02/10 01:38:50;;;;;;;11.02;6.18;;;;;;;4.76;49.88;94887.84;5023160;28;20032;-77
2022/02/10 01:57:51;;;;;;;22.98;10.35;;;;;;;4.49;50.81;94898.41;5015667;28;20981;-77
2022/02/10 02:05:47;;;;;;;12.90;9.38;;;;;;;4.32;50.53;94847.66;5019222;28;20056;-78
2022/02/10 02:08:15;;;;;;;16.15;9.15;;;;;;;4.49;50.73;94872.06;5015601;28;20045;-76
2022/02/10 02:10:41;;;;;;;18.88;8.82;;;;;;;4.35;50.51;94855.06;5014992;28;20148;-77
2022/02/10 02:13:06;;;;;;;17.48;10.73;;;;;;;4.23;50.50;94844.66;5016050;28;20517;-76
2022/02/10 02:15:31;;;;;;;17.33;9.02;;;;;;;4.41;50.43;94861.97;5015922;28;20110;-76
2022/02/10 02:17:57;;;;;;;11.35;7.57;;;;;;;4.35;50.44;94861.16;5024290;28;20044;-76
2022/02/10 02:20:23;;;;;;;10.45;5.80;;;;;;;4.33;50.71;94859.78;5014423;28;20078;-77
2022/02/10 02:22:48;;;;;;;5.88;3.67;;;;;;;4.46;50.33;94872.56;5017392;28;20044;-77
2022/02/10 02:25:14;;;;;;;5.97;3.45;;;;;;;4.41;50.30;94872.50;5028046;28;20102;-76
2022/02/10 02:27:47;;;;;;;6.35;3.22;;;;;;;4.39;49.80;94867.50;5018794;28;20064;-78
2022/02/10 03:05:42;;;;;;;2.45;2.00;;;;;;;3.74;51.97;94859.63;5027333;28;20141;-78
2022/02/10 03:08:17;;;;;;;4.47;2.25;;;;;;;3.83;51.63;94869.47;5023249;28;20037;-77
2022/02/10 03:13:15;;;;;;;2.88;2.38;;;;;;;3.91;51.46;94868.28;5024897;28;20409;-77
2022/02/10 03:16:10;;;;;;;3.60;2.72;;;;;;;3.92;51.21;94863.78;5023406;28;20049;-75
2022/02/10 03:18:41;;;;;;;3.85;2.30;;;;;;;3.87;50.58;94864.50;5020690;28;20048;-76
2022/02/10 04:21:10;;;;;;;4.53;3.63;;;;;;;3.38;51.71;94850.47;5020323;28;20037;-76
2022/02/10 04:23:20;;;;;;;;;;;;;;;3.55;51.66;94874.13;5012418;28;20059;-75
2022/02/10 04:28:31;;;;;;;3.90;2.88;;;;;;;3.38;51.70;94840.75;5017094;28;20033;-77
2022/02/10 05:23:54;;;;;;;3.85;2.90;;;;;;;3.80;50.61;94884.97;5018630;28;20086;-76
2022/02/10 05:34:14;;;;;;;28.63;10.68;;;;;;;3.78;50.72;94879.13;5013008;28;20042;-78
2022/02/10 05:36:41;;;;;;;13.77;7.63;;;;;;;3.76;50.98;94895.19;5018374;28;20036;-77
2022/02/10 05:42:06;;;;;;;9.45;5.20;;;;;;;3.78;50.99;94892.28;5021397;28;20072;-75
2022/02/10 05:44:47;;;;;;;4.70;3.53;;;;;;;3.88;50.90;94908.22;5017501;28;20068;-77
2022/02/10 06:00:42;;;;;;;8.70;4.82;;;;;;;3.76;51.22;94907.56;5010513;28;20056;-75
2022/02/10 06:49:01;;;;;;;18.55;10.32;;;;;;;3.99;52.78;94920.47;5027048;28;20687;-77
2022/02/10 07:02:50;;;;;;;17.33;9.68;;;;;;;4.52;51.80;94926.88;5023388;28;20034;-77
2022/02/10 07:10:14;;;;;;;19.77;12.52;;;;;;;4.27;52.12;94912.38;5018664;28;20045;-75
2022/02/10 07:16:08;;;;;;;25.67;12.45;;;;;;;4.55;52.22;94913.25;5018413;28;20055;-78
2022/02/10 07:48:17;;;;;;;23.23;12.40;;;;;;;5.21;52.37;94914.59;5024923;28;20073;-77
2022/02/10 08:52:32;;;;;;;29.83;14.82;;;;;;;5.66;51.95;94902.75;5019574;28;20060;-76
2022/02/10 09:05:03;;;;;;;25.67;14.00;;;;;;;6.32;50.36;94914.44;5016990;28;20113;-76
2022/02/10 09:58:00;;;;;;;29.38;16.00;;;;;;;5.90;52.61;94866.97;5024049;28;20519;-77
2022/02/10 10:03:20;;;;;;;21.83;14.63;;;;;;;5.87;52.43;94878.84;5020708;28;20126;-78
2022/02/10 10:06:46;;;;;;;29.38;14.70;;;;;;;6.38;52.14;94884.34;5019430;28;20246;-78
2022/02/10 10:14:47;;;;;;;29.75;15.23;;;;;;;5.80;52.95;94859.81;5023542;28;20120;-77
2022/02/10 10:19:59;;;;;;;27.58;16.02;;;;;;;6.48;51.94;94855.31;5001361;28;20025;-77
2022/02/10 10:23:09;;;;;;;30.33;15.93;;;;;;;7.19;49.81;94852.69;5009515;28;20437;-76
2022/02/10 10:56:06;;;;;;;27.27;16.20;;;;;;;7.90;48.75;94787.13;5013719;28;20127;-77
2022/02/10 10:58:46;;;;;;;33.80;16.98;;;;;;;7.87;48.24;94776.28;5014340;28;20037;-77
2022/02/10 11:37:37;;;;;;;25.90;17.27;;;;;;;7.48;49.54;94761.06;5026471;28;20122;-77
2022/02/10 11:40:19;;;;;;;32.38;18.35;;;;;;;7.49;48.84;94730.06;5028396;28;20141;-77
2022/02/10 11:43:25;;;;;;;31.45;17.75;;;;;;;8.01;48.67;94748.94;5022920;28;20049;-77
2022/02/10 13:31:32;;;;;;;38.67;21.85;;;;;;;10.06;43.58;94676.53;5022983;28;20033;-76
2022/02/10 14:17:12;;;;;;;24.08;14.38;;;;;;;12.18;40.56;94636.31;5011653;28;20409;-74
2022/02/10 14:19:58;;;;;;;31.75;15.50;;;;;;;11.84;40.22;94610.19;5019800;28;20031;-74
2022/02/10 14:27:38;;;;;;;18.58;12.73;;;;;;;11.53;41.39;94634.06;5013477;28;20098;-74
2022/02/10 14:30:04;;;;;;;19.95;11.98;;;;;;;11.48;41.08;94615.50;5012818;28;20045;-74
2022/02/10 14:32:34;;;;;;;24.05;13.07;;;;;;;11.67;40.77;94628.69;5022838;28;20037;-77
2022/02/10 14:35:05;;;;;;;22.75;13.40;;;;;;;11.51;41.10;94620.25;5017402;28;20120;-77
2022/02/10 14:40:28;;;;;;;22.67;12.55;;;;;;;11.30;41.26;94603.06;5023323;28;20037;-75
2022/02/10 14:43:11;;;;;;;22.73;12.80;;;;;;;11.30;40.91;94605.72;5025035;28;20072;-74
2022/02/10 15:30:31;;;;;;;12.38;8.50;;;;;;;9.37;42.08;94593.03;4996118;28;20136;-73
2022/02/10 15:48:43;;;;;;;6.95;5.50;;;;;;;9.16;41.58;94604.97;5020008;28;20049;-73
2022/02/10 16:12:53;;;;;;;6.97;4.00;;;;;;;8.50;41.28;94571.25;5017066;28;20048;-74
2022/02/10 16:17:14;;;;;;;4.07;3.30;;;;;;;8.18;41.76;94608.09;5012840;28;20507;-74
2022/02/10 16:19:41;;;;;;;7.15;4.15;;;;;;;8.01;42.03;94578.59;5022975;28;20091;-74
2022/02/10 16:24:37;;;;;;;13.50;6.95;;;;;;;8.11;41.94;94599.72;5019209;28;20320;-77
2022/02/10 16:30:12;;;;;;;15.25;8.75;;;;;;;7.76;42.51;94582.22;5009737;28;20092;-77
2022/02/10 16:32:39;;;;;;;9.95;6.63;;;;;;;7.96;41.98;94607.78;5027067;28;20297;-77
2022/02/10 16:35:05;;;;;;;8.98;5.53;;;;;;;7.77;42.47;94591.75;5021644;28;20033;-77
2022/02/10 16:37:33;;;;;;;12.40;7.43;;;;;;;7.89;42.05;94615.22;5017621;28;20029;-75
2022/02/10 16:39:58;;;;;;;6.43;5.15;;;;;;;7.85;42.09;94609.69;5018949;28;20033;-77
2022/02/10 16:42:23;;;;;;;8.40;6.25;;;;;;;7.51;42.14;94591.09;5019280;28;20472;-77
2022/02/10 16:44:49;;;;;;;15.10;7.95;;;;;;;7.73;42.11;94614.53;5023900;28;20041;-76
2022/02/10 16:47:15;;;;;;;28.08;13.77;;;;;;;7.76;41.88;94613.22;5020585;28;20513;-76
2022/02/10 16:49:51;;;;;;;34.83;16.92;;;;;;;7.52;41.91;94590.03;5015258;28;20687;-78
2022/02/10 16:52:40;;;;;;;33.65;20.17;;;;;;;7.73;41.65;94610.03;5008683;28;21249;-78
2022/02/10 16:55:21;;;;;;;21.35;10.45;;;;;;;7.24;42.31;94612.69;5020805;28;20076;-77
2022/02/10 17:01:00;;;;;;;12.48;8.10;;;;;;;7.22;41.85;94575.13;5020320;28;20484;-77
2022/02/10 17:46:14;;;;;;;16.70;7.93;;;;;;;7.32;41.94;94608.69;5013318;28;20049;-77
2022/02/10 17:53:58;;;;;;;27.60;13.75;;;;;;;7.47;41.75;94621.84;5011522;28;20041;-76
2022/02/10 17:56:26;;;;;;;28.38;13.48;;;;;;;7.09;41.82;94577.59;5016847;28;20501;-77
2022/02/10 17:58:52;;;;;;;47.75;22.05;;;;;;;7.53;41.59;94630.56;5019289;28;20025;-76
2022/02/10 18:01:18;;;;;;;36.13;17.52;;;;;;;7.56;41.32;94625.50;5012814;28;20493;-75
2022/02/10 18:03:43;;;;;;;20.38;11.82;;;;;;;7.24;41.61;94596.81;5013215;28;20388;-76
2022/02/10 18:06:35;;;;;;;21.55;9.77;;;;;;;7.49;41.75;94618.91;5014956;28;20046;-77
2022/02/10 18:14:28;;;;;;;10.13;6.32;;;;;;;6.95;41.88;94572.09;5015508;28;20053;-75
2022/02/10 18:17:32;;;;;;;13.68;7.10;;;;;;;7.50;40.73;94625.78;5021842;28;20056;-77
2022/02/10 18:19:51;;;;;;;17.27;9.68;;;;;;;7.27;41.06;94606.06;5023185;28;20028;-76
2022/02/10 18:28:22;;;;;;;24.95;15.10;;;;;;;7.05;41.38;94609.06;5020307;28;20094;-77
2022/02/10 18:30:20;;;;;;;19.75;12.93;;;;;;;7.18;41.85;94634.97;5017379;28;20115;-77
2022/02/10 19:08:21;;;;;;;12.23;7.10;;;;;;;7.03;42.71;94650.09;5017859;28;20079;-77
2022/02/10 19:10:49;;;;;;;20.83;11.15;;;;;;;7.01;42.50;94645.06;5016500;28;20029;-78
2022/02/10 19:13:18;;;;;;;24.15;12.23;;;;;;;6.73;42.52;94596.25;5014239;28;20134;-76
2022/02/10 19:15:43;;;;;;;16.20;9.80;;;;;;;6.96;42.67;94646.94;5019794;28;20216;-73
2022/02/10 19:18:10;;;;;;;20.20;11.25;;;;;;;6.97;42.88;94637.94;5020320;28;20488;-76
2022/02/10 19:20:36;;;;;;;19.38;12.50;;;;;;;6.88;42.75;94643.00;5024183;28;20124;-76
2022/02/10 19:23:03;;;;;;;22.95;13.35;;;;;;;7.03;42.98;94658.03;5020654;28;20508;-77
2022/02/10 19:25:30;;;;;;;17.30;10.52;;;;;;;7.13;42.72;94668.56;5021549;28;22449;-75
2022/02/10 19:27:56;;;;;;;13.93;8.77;;;;;;;7.03;42.72;94655.38;5018417;28;20041;-75
2022/02/10 19:30:24;;;;;;;17.55;8.27;;;;;;;6.54;43.00;94581.25;5022503;28;20042;-76
2022/02/10 19:32:54;;;;;;;11.55;7.25;;;;;;;6.99;43.20;94663.06;5013134;28;20190;-76
2022/02/10 19:35:23;;;;;;;12.05;7.22;;;;;;;6.88;43.05;94650.94;5019610;28;20053;-77
2022/02/10 19:37:55;;;;;;;13.32;7.82;;;;;;;6.76;43.34;94630.06;5015392;28;20099;-77
2022/02/10 19:40:20;;;;;;;17.60;9.10;;;;;;;6.79;43.39;94639.31;5023293;28;20620;-76
2022/02/10 19:42:47;;;;;;;18.35;10.80;;;;;;;6.80;43.97;94660.19;5018200;28;20037;-77
2022/02/10 19:45:13;;;;;;;17.98;10.95;;;;;;;6.61;43.85;94645.16;5020976;28;20033;-76
2022/02/10 19:47:40;;;;;;;15.02;8.80;;;;;;;6.58;43.49;94624.56;5019795;28;20452;-77
2022/02/10 19:50:13;;;;;;;16.98;9.50;;;;;;;6.78;43.76;94662.31;5016169;28;20036;-77
2022/02/10 19:52:47;;;;;;;15.70;8.88;;;;;;;6.74;43.55;94648.06;5023279;28;20106;-77
2022/02/10 19:55:19;;;;;;;15.17;8.10;;;;;;;6.74;43.67;94652.56;5030495;28;20148;-75
2022/02/10 19:57:46;;;;;;;6.75;5.90;;;;;;;6.71;43.58;94619.50;5019431;28;20120;-77
2022/02/10 20:00:21;;;;;;;12.52;7.93;;;;;;;6.80;43.93;94644.31;5020791;28;20183;-75
2022/02/10 20:02:48;;;;;;;10.23;7.00;;;;;;;6.75;44.31;94646.97;5039843;28;20420;-77
2022/02/10 20:05:13;;;;;;;8.45;5.93;;;;;;;6.67;44.20;94629.03;5025556;28;20124;-77
2022/02/10 20:07:41;;;;;;;16.13;9.73;;;;;;;6.77;44.51;94644.09;5023200;28;20119;-77
2022/02/10 20:10:08;;;;;;;19.35;10.45;;;;;;;6.62;44.20;94636.19;5022715;28;20045;-77
2022/02/10 20:12:34;;;;;;;15.65;11.07;;;;;;;6.63;44.69;94635.94;5022700;28;20049;-77
2022/02/10 20:15:00;;;;;;;16.17;10.52;;;;;;;6.71;44.62;94648.59;5019296;28;20859;-76
2022/02/10 20:17:26;;;;;;;13.88;8.88;;;;;;;6.77;44.35;94644.09;5013624;28;20045;-76
2022/02/10 20:19:51;;;;;;;13.70;8.48;;;;;;;6.70;44.00;94649.63;5025327;28;20717;-77
2022/02/10 20:22:17;;;;;;;17.23;8.88;;;;;;;6.61;43.67;94647.81;5022091;28;21312;-77
2022/02/10 20:24:43;;;;;;;16.75;9.35;;;;;;;6.66;43.91;94656.53;5024157;28;20123;-77
2022/02/10 20:27:09;;;;;;;15.40;8.93;;;;;;;6.59;44.32;94637.53;5019747;28;20528;-76
2022/02/10 20:29:35;;;;;;;14.73;8.80;;;;;;;6.64;44.35;94661.31;5016493;28;20045;-76
2022/02/10 20:32:01;;;;;;;14.38;8.65;;;;;;;6.49;44.41;94632.25;5020851;28;20028;-77
2022/02/10 20:34:29;;;;;;;13.75;8.20;;;;;;;6.66;44.51;94656.53;5020970;28;20033;-78
2022/02/10 20:36:56;;;;;;;17.15;9.85;;;;;;;6.63;44.54;94654.44;5012948;28;20533;-77
2022/02/10 20:39:26;;;;;;;38.03;15.65;;;;;;;6.54;44.60;94634.09;5023247;28;20037;-77
2022/02/10 20:41:59;;;;;;;38.30;18.73;;;;;;;6.67;44.42;94646.75;5010459;28;20512;-77
2022/02/10 20:44:25;;;;;;;38.78;17.10;;;;;;;6.51;44.41;94624.84;5013739;28;20041;-76
2022/02/10 20:46:51;;;;;;;45.00;18.23;;;;;;;6.70;44.27;94643.59;5019577;28;20502;-77
2022/02/10 20:49:18;;;;;;;41.42;20.05;;;;;;;6.68;44.36;94638.56;5017855;28;20133;-77
2022/02/10 20:51:45;;;;;;;18.73;10.65;;;;;;;6.63;44.22;94628.00;5019280;28;20032;-77
2022/02/10 20:54:11;;;;;;;27.38;12.57;;;;;;;6.47;44.57;94615.88;5018905;28;20356;-77
2022/02/10 20:56:37;;;;;;;26.45;13.40;;;;;;;6.43;44.51;94610.31;5019668;28;20086;-77
2022/02/10 20:59:17;;;;;;;37.58;17.00;;;;;;;6.46;44.34;94616.91;5022155;28;20421;-77
2022/02/10 21:01:43;;;;;;;137.07;45.00;;;;;;;6.52;44.29;94618.50;5017340;28;20051;-77
2022/02/10 21:04:09;;;;;;;129.40;44.60;;;;;;;6.55;44.26;94610.06;5015732;28;20034;-77
2022/02/10 21:09:18;;;;;;;152.38;49.50;;;;;;;6.45;44.57;94594.22;5020707;28;20407;-78
2022/02/10 21:11:43;;;;;;;128.43;45.63;;;;;;;6.42;44.22;94584.16;5023425;28;20519;-76
2022/02/10 21:14:15;;;;;;;56.53;23.05;;;;;;;6.59;44.44;94610.31;5024107;28;20139;-76
2022/02/10 21:16:42;;;;;;;162.15;50.25;;;;;;;6.52;44.51;94605.28;5012419;28;20028;-77
2022/02/10 21:19:10;;;;;;;142.10;46.00;;;;;;;6.59;44.10;94605.81;5021309;28;20045;-77
2022/02/10 21:21:35;;;;;;;71.93;24.70;;;;;;;6.17;44.59;94569.16;5026594;28;20045;-77
2022/02/10 21:24:07;;;;;;;55.08;20.65;;;;;;;6.20;44.53;94583.69;5018020;28;20444;-77
2022/02/10 21:26:40;;;;;;;97.63;37.05;;;;;;;6.22;44.62;94582.34;5022079;28;20119;-77
2022/02/10 21:29:07;;;;;;;94.30;35.10;;;;;;;6.05;44.66;94562.53;5013061;28;20491;-77
2022/02/10 21:31:41;;;;;;;98.57;38.58;;;;;;;6.26;44.53;94601.13;5022988;28;20511;-77
2022/02/10 21:34:18;;;;;;;110.53;40.08;;;;;;;6.28;44.23;94583.94;5020910;28;20036;-77
2022/02/10 22:18:59;;;;;;;15.02;9.25;;;;;;;5.41;47.12;94573.63;5007448;28;20029;-75
2022/02/10 22:21:30;;;;;;;20.27;9.50;;;;;;;5.19;47.05;94555.38;5008055;28;20045;-74
2022/02/10 22:23:56;;;;;;;24.98;11.07;;;;;;;5.24;46.65;94551.94;5009667;28;20118;-77
2022/02/10 22:26:29;;;;;;;23.95;11.00;;;;;;;4.89;46.38;94484.16;5009046;28;20456;-76
2022/02/10 22:34:31;;;;;;;31.27;14.45;;;;;;;5.29;46.41;94559.88;4983524;28;20492;-77
2022/02/10 22:37:00;;;;;;;18.67;10.32;;;;;;;5.43;46.33;94572.28;5007302;28;20044;-77
2022/02/10 22:39:28;;;;;;;21.15;10.27;;;;;;;5.56;46.04;94581.56;5002944;28;20033;-77
2022/02/10 22:41:54;;;;;;;17.40;9.65;;;;;;;5.46;46.30;94577.06;4990823;28;20038;-77
2022/02/10 22:44:20;;;;;;;19.42;9.27;;;;;;;5.32;46.48;94570.72;4998314;28;20092;-77
2022/02/10 22:46:46;;;;;;;18.83;9.95;;;;;;;5.22;46.69;94567.25;4999168;28;20033;-77
2022/02/10 22:49:12;;;;;;;28.83;14.23;;;;;;;4.92;47.17;94528.44;4998242;28;20601;-77
2022/02/10 22:51:38;;;;;;;25.63;11.00;;;;;;;4.93;46.73;94522.91;5009276;28;20046;-77
2022/02/10 22:54:05;;;;;;;26.65;10.55;;;;;;;5.09;46.52;94537.69;5004988;28;20136;-76
2022/02/10 22:56:31;;;;;;;13.23;6.35;;;;;;;5.33;46.31;94555.69;4995147;28;20681;-77
2022/02/10 22:58:59;;;;;;;10.65;6.70;;;;;;;5.20;46.32;94551.69;5009846;28;20141;-77
2022/02/10 23:01:26;;;;;;;15.77;7.82;;;;;;;5.19;46.52;94560.66;5000503;28;20040;-76
2022/02/10 23:03:52;;;;;;;16.13;7.75;;;;;;;5.30;46.55;94558.81;5009188;28;20048;-78
2022/02/10 23:06:17;;;;;;;18.45;8.80;;;;;;;5.17;46.56;94525.06;5006944;28;20045;-77
2022/02/10 23:08:43;;;;;;;20.60;10.38;;;;;;;5.28;46.64;94553.03;5002355;28;20095;-76
2022/02/10 23:11:14;;;;;;;17.83;8.77;;;;;;;5.21;46.70;94555.13;5007116;28;20214;-77
2022/02/10 23:13:46;;;;;;;16.90;8.80;;;;;;;5.07;46.66;94531.91;5012453;28;20533;-78
2022/02/10 23:16:14;;;;;;;16.10;7.10;;;;;;;5.10;46.33;94531.38;5000935;28;20034;-77
2022/02/10 23:18:41;;;;;;;15.90;7.45;;;;;;;5.22;46.46;94544.31;5007386;28;20060;-75
2022/02/10 23:21:10;;;;;;;12.98;8.02;;;;;;;5.25;46.39;94548.28;5006492;28;20037;-77
2022/02/10 23:23:37;;;;;;;17.77;7.75;;;;;;;4.94;46.57;94524.47;5005601;28;20072;-78
2022/02/10 23:26:05;;;;;;;16.23;8.05;;;;;;;5.02;46.45;94517.91;5000675;28;20026;-76
2022/02/10 23:28:34;;;;;;;14.43;7.28;;;;;;;5.17;46.33;94536.41;5000357;28;20030;-77
2022/02/10 23:31:03;;;;;;;17.40;6.90;;;;;;;5.07;46.22;94508.19;5004873;28;20515;-77
2022/02/10 23:33:32;;;;;;;15.20;7.13;;;;;;;5.23;45.96;94524.81;5003751;28;20623;-78
2022/02/10 23:43:39;;;;;;;26.83;13.52;;;;;;;4.89;46.84;94500.75;5006682;28;20144;-76
2022/02/10 23:46:05;;;;;;;20.92;9.00;;;;;;;5.14;46.75;94531.63;4978405;28;20492;-78
2022/02/10 23:48:32;;;;;;;19.13;9.88;;;;;;;5.16;46.36;94505.00;4992497;28;20168;-78
2022/02/10 23:50:58;;;;;;;18.02;9.98;;;;;;;5.09;46.80;94511.31;4985421;28;20401;-77
2022/02/10 23:53:23;;;;;;;19.90;11.30;;;;;;;5.19;47.11;94546.69;4979771;28;20072;-77
2022/02/10 23:55:49;;;;;;;23.05;11.45;;;;;;;5.06;47.42;94529.50;4979263;28;20369;-77
